METAR Data
IDs: Format: Raw Decoded Include TAF

Data at: 1333 UTC 21 Apr 2021

PGUM 211254Z 05005KT 10SM CLR 26/21 A2992 RMK AO2 SLP125 T02610206